createdAt,value
2017-12-02T00:01:26.447Z,32.00
2017-12-02T00:06:53.884Z,36.10
2017-12-02T00:09:34.576Z,36.45
2017-12-02T00:12:12.274Z,33.80
2017-12-02T00:14:50.157Z,33.88
2017-12-02T00:17:25.000Z,33.38
2017-12-02T00:20:03.155Z,33.63
2017-12-02T00:22:42.669Z,36.33
2017-12-02T00:25:25.707Z,37.15
2017-12-02T00:28:09.804Z,36.20
2017-12-02T00:30:45.651Z,34.47
2017-12-02T00:33:23.658Z,36.33
2017-12-02T00:36:05.896Z,37.28
2017-12-02T00:38:46.997Z,30.90
2017-12-02T00:41:25.514Z,34.90
2017-12-02T00:44:02.668Z,36.17
2017-12-02T00:46:42.631Z,31.92
2017-12-02T00:49:22.951Z,34.05
2017-12-02T00:52:02.396Z,36.20
2017-12-02T00:54:43.781Z,35.50
2017-12-02T00:57:19.909Z,38.00
2017-12-02T00:59:58.187Z,36.58
2017-12-02T01:02:34.007Z,32.92
2017-12-02T01:05:14.193Z,33.15
2017-12-02T01:07:59.671Z,36.95
2017-12-02T01:10:42.468Z,34.75
2017-12-02T01:13:32.158Z,28.83
2017-12-02T01:16:13.415Z,35.10
2017-12-02T01:18:56.806Z,36.25
2017-12-02T01:21:36.822Z,36.00
2017-12-02T01:24:21.757Z,34.80
2017-12-02T01:26:58.399Z,34.92
2017-12-02T01:29:37.875Z,39.17
2017-12-02T01:32:14.159Z,33.05
2017-12-02T01:34:55.758Z,35.50
2017-12-02T01:37:39.591Z,38.65
2017-12-02T01:40:22.780Z,35.10
2017-12-02T01:43:07.531Z,33.70
2017-12-02T01:45:45.012Z,43.85
2017-12-02T01:48:24.237Z,33.05
2017-12-02T01:51:04.566Z,33.50
2017-12-02T01:53:44.005Z,33.10
2017-12-02T01:59:19.993Z,35.80
2017-12-02T02:02:04.096Z,34.15
2017-12-02T02:04:51.719Z,33.17
2017-12-02T02:07:29.157Z,31.00
2017-12-02T02:10:07.567Z,37.25
2017-12-02T02:12:50.340Z,37.45
2017-12-02T02:15:30.557Z,33.38
2017-12-02T02:18:09.535Z,31.00
2017-12-02T02:20:46.427Z,30.95
2017-12-02T02:23:25.220Z,28.00
2017-12-02T02:25:59.990Z,28.12
2017-12-02T02:28:43.912Z,27.62
2017-12-02T02:31:16.993Z,29.92
2017-12-02T02:33:53.546Z,37.13
2017-12-02T02:36:26.546Z,31.83
2017-12-02T02:39:10.151Z,32.90
2017-12-02T02:41:44.556Z,30.58
2017-12-02T02:44:21.002Z,40.12
2017-12-02T02:47:01.375Z,34.47
2017-12-02T02:49:46.556Z,30.42
2017-12-02T02:52:24.292Z,34.22
2017-12-02T02:55:03.067Z,30.58
2017-12-02T02:57:43.963Z,27.37
2017-12-02T03:00:18.828Z,30.08
2017-12-02T03:03:03.331Z,29.70
2017-12-02T03:05:42.898Z,35.72
2017-12-02T03:08:22.042Z,34.72
2017-12-02T03:10:59.021Z,31.48
2017-12-02T03:13:36.562Z,29.42
2017-12-02T03:16:23.055Z,32.38
2017-12-02T03:19:03.331Z,32.28
2017-12-02T03:22:09.963Z,34.72
2017-12-02T03:24:51.051Z,33.03
2017-12-02T03:27:30.105Z,35.65
2017-12-02T03:30:10.725Z,32.30
2017-12-02T03:32:50.801Z,32.22
2017-12-02T03:35:26.482Z,36.03
2017-12-02T03:38:04.823Z,32.65
2017-12-02T03:40:42.487Z,33.97
2017-12-02T03:43:23.420Z,32.13
2017-12-02T03:45:59.665Z,31.00
2017-12-02T03:48:48.481Z,33.38
2017-12-02T03:51:25.322Z,33.97
2017-12-02T03:54:04.700Z,35.38
2017-12-02T03:56:45.373Z,31.23
2017-12-02T04:02:31.601Z,35.03
2017-12-02T04:05:07.781Z,42.78
2017-12-02T04:07:45.658Z,44.60
2017-12-02T04:10:23.880Z,38.53
2017-12-02T04:13:03.248Z,41.00
2017-12-02T04:15:46.336Z,39.00
2017-12-02T04:21:14.809Z,50.12
2017-12-02T04:23:52.610Z,48.70
2017-12-02T04:26:32.304Z,53.03
2017-12-02T04:29:15.951Z,48.17
2017-12-02T04:31:51.717Z,49.97
2017-12-02T04:34:32.555Z,48.90
2017-12-02T04:37:25.118Z,53.28
2017-12-02T04:40:02.759Z,54.38
2017-12-02T04:42:48.535Z,48.30
2017-12-02T04:45:29.404Z,42.00
2017-12-02T04:48:09.997Z,44.33
2017-12-02T04:50:49.819Z,44.33
2017-12-02T04:53:30.340Z,43.15
2017-12-02T04:56:09.466Z,46.03
2017-12-02T04:58:50.407Z,46.63
2017-12-02T05:01:30.659Z,48.70
2017-12-02T05:04:13.940Z,46.42
2017-12-02T05:06:49.858Z,51.83
2017-12-02T05:09:29.011Z,51.08
2017-12-02T05:12:17.972Z,45.75
2017-12-02T05:14:54.544Z,43.60
2017-12-02T05:17:34.479Z,42.03
2017-12-02T05:20:12.030Z,44.20
2017-12-02T05:22:52.766Z,45.60
2017-12-02T05:25:33.138Z,48.30
2017-12-02T05:28:06.825Z,41.58
2017-12-02T05:33:31.560Z,42.53
2017-12-02T05:36:09.185Z,42.42
2017-12-02T05:38:47.453Z,43.65
2017-12-02T05:41:28.294Z,45.85
2017-12-02T05:44:03.023Z,49.33
2017-12-02T05:46:41.332Z,48.08
2017-12-02T05:49:23.704Z,43.78
2017-12-02T05:52:02.624Z,47.13
2017-12-02T05:54:41.605Z,46.42
2017-12-02T05:57:19.414Z,46.40
2017-12-02T06:00:00.566Z,45.60
2017-12-02T06:02:35.157Z,47.60
2017-12-02T06:05:09.778Z,46.33
2017-12-02T06:07:45.226Z,45.85
2017-12-02T06:10:37.474Z,47.10
2017-12-02T06:13:17.762Z,43.97
2017-12-02T06:15:54.122Z,44.38
2017-12-02T06:18:32.649Z,47.75
2017-12-02T06:22:10.333Z,43.25
2017-12-02T06:24:46.280Z,45.10
2017-12-02T06:27:26.784Z,41.13
2017-12-02T06:30:10.403Z,44.33
2017-12-02T06:32:46.316Z,40.22
2017-12-02T06:35:23.082Z,43.60
2017-12-02T06:38:00.419Z,46.67
2017-12-02T06:40:37.636Z,40.03
2017-12-02T06:43:16.437Z,43.72
2017-12-02T06:45:59.762Z,46.70
2017-12-02T06:48:39.498Z,39.58
2017-12-02T06:51:15.373Z,42.95
2017-12-02T06:54:00.794Z,41.30
2017-12-02T06:56:36.281Z,45.33
2017-12-02T06:59:15.185Z,40.85
2017-12-02T07:01:57.090Z,42.22
2017-12-02T07:04:38.057Z,40.55
2017-12-02T07:10:09.188Z,46.72
2017-12-02T07:12:53.278Z,44.78
2017-12-02T07:15:29.750Z,46.42
2017-12-02T07:18:13.398Z,47.10
2017-12-02T07:20:51.310Z,46.28
2017-12-02T07:23:30.227Z,45.72
2017-12-02T07:26:08.315Z,42.10
2017-12-02T07:28:45.480Z,45.53
2017-12-02T07:31:21.257Z,41.65
2017-12-02T07:33:56.645Z,49.25
2017-12-02T07:36:42.415Z,45.80
2017-12-02T07:39:23.843Z,43.67
2017-12-02T07:41:58.323Z,40.83
2017-12-02T07:44:43.952Z,42.60
2017-12-02T07:47:24.216Z,45.67
2017-12-02T07:50:02.766Z,44.00
2017-12-02T07:52:47.967Z,43.53
2017-12-02T07:55:22.506Z,42.65
2017-12-02T07:57:56.614Z,43.33
2017-12-02T08:00:39.286Z,45.55
2017-12-02T08:03:16.503Z,43.55
2017-12-02T08:06:04.171Z,43.08
2017-12-02T08:08:47.472Z,46.92
2017-12-02T08:11:32.502Z,43.83
2017-12-02T08:14:06.769Z,46.35
2017-12-02T08:16:49.849Z,43.92
2017-12-02T08:19:25.675Z,44.95
2017-12-02T08:22:06.840Z,41.97
2017-12-02T08:24:45.874Z,43.80
2017-12-02T08:27:21.674Z,42.65
2017-12-02T08:30:16.381Z,43.17
2017-12-02T08:32:56.040Z,43.47
2017-12-02T08:35:37.270Z,45.53
2017-12-02T08:38:23.339Z,59.42
2017-12-02T08:40:59.745Z,101.78
2017-12-02T08:43:35.160Z,136.98
2017-12-02T08:46:11.489Z,62.80
2017-12-02T08:48:58.750Z,92.30
2017-12-02T09:02:57.470Z,72.50
2017-12-02T09:05:38.741Z,93.62
2017-12-02T09:08:17.239Z,103.80
2017-12-02T09:10:56.854Z,81.63
2017-12-02T09:13:38.347Z,131.98
2017-12-02T09:16:18.043Z,107.65
2017-12-02T09:18:59.371Z,100.18
2017-12-02T09:24:35.872Z,56.60
2017-12-02T09:27:16.573Z,99.60
2017-12-02T09:32:41.354Z,48.10
2017-12-02T09:35:18.549Z,68.12
2017-12-02T09:37:58.157Z,56.58
2017-12-02T09:40:37.671Z,48.67
2017-12-02T09:43:24.073Z,40.50
2017-12-02T09:46:03.629Z,27.77
2017-12-02T09:48:43.843Z,30.17
2017-12-02T09:51:19.688Z,36.60
2017-12-02T09:53:59.194Z,33.95
2017-12-02T09:56:39.228Z,35.78
2017-12-02T09:59:18.470Z,37.75
2017-12-02T10:04:43.105Z,39.92
2017-12-02T10:07:20.990Z,41.60
2017-12-02T10:12:51.934Z,38.50
2017-12-02T10:15:31.892Z,36.58
2017-12-02T10:18:10.192Z,36.47
2017-12-02T10:20:48.268Z,39.67
2017-12-02T10:23:28.867Z,34.55
2017-12-02T10:26:04.663Z,39.50
2017-12-02T10:28:40.648Z,38.08
2017-12-02T10:31:15.116Z,35.95
2017-12-02T10:34:01.108Z,31.70
2017-12-02T10:36:38.024Z,35.97
2017-12-02T10:39:16.197Z,32.72
2017-12-02T10:41:51.487Z,34.78
2017-12-02T10:44:33.061Z,32.45
2017-12-02T10:47:09.983Z,37.45
2017-12-02T10:49:50.780Z,37.60
2017-12-02T10:52:30.341Z,33.65
2017-12-02T10:55:06.502Z,31.73
2017-12-02T10:57:42.159Z,44.83
2017-12-02T11:00:19.593Z,35.83
2017-12-02T11:03:02.144Z,36.70
2017-12-02T11:05:41.336Z,36.42
2017-12-02T11:08:23.342Z,35.10
2017-12-02T11:11:02.747Z,38.10
2017-12-02T11:13:39.069Z,35.13
2017-12-02T11:16:18.261Z,35.38
2017-12-02T11:21:49.362Z,37.45
2017-12-02T11:24:33.266Z,32.17
2017-12-02T11:27:37.498Z,32.40
2017-12-02T11:33:08.494Z,35.45
2017-12-02T11:35:50.033Z,32.50
2017-12-02T11:38:31.202Z,32.30
2017-12-02T11:41:08.328Z,32.40
2017-12-02T11:43:45.510Z,30.60
2017-12-02T11:46:29.106Z,31.48
2017-12-02T11:52:06.644Z,29.30
2017-12-02T11:54:44.938Z,30.58
2017-12-02T11:57:27.583Z,31.33
2017-12-02T12:00:06.615Z,34.30
2017-12-02T12:02:45.711Z,31.33
2017-12-02T12:05:32.321Z,34.80
2017-12-02T12:10:54.622Z,35.42
2017-12-02T12:13:34.591Z,31.83
2017-12-02T12:16:11.830Z,36.53
2017-12-02T12:18:46.005Z,37.00
2017-12-02T12:21:23.784Z,34.33
2017-12-02T12:23:58.519Z,34.25
2017-12-02T12:26:36.097Z,37.25
2017-12-02T12:29:13.154Z,38.83
2017-12-02T12:31:49.181Z,38.00
2017-12-02T12:34:24.879Z,36.65
2017-12-02T12:37:05.319Z,36.78
2017-12-02T12:39:50.710Z,36.72
2017-12-02T12:45:18.170Z,44.17
2017-12-02T12:47:56.516Z,34.17
2017-12-02T12:50:38.210Z,37.45
2017-12-02T12:53:21.968Z,41.80
2017-12-02T12:56:00.608Z,40.78
2017-12-02T12:58:41.002Z,38.55
2017-12-02T13:01:21.307Z,33.00
2017-12-02T13:04:01.114Z,36.55
2017-12-02T13:06:40.503Z,36.83
2017-12-02T13:09:21.991Z,35.60
2017-12-02T13:12:12.769Z,37.88
2017-12-02T13:14:49.369Z,35.00
2017-12-02T13:17:25.564Z,32.08
2017-12-02T13:20:04.481Z,40.50
2017-12-02T13:22:50.249Z,33.85
2017-12-02T13:25:36.788Z,34.30
2017-12-02T13:28:23.701Z,38.10
2017-12-02T13:31:21.481Z,32.72
2017-12-02T13:34:03.980Z,35.13
2017-12-02T13:36:47.052Z,36.42
2017-12-02T13:39:27.602Z,32.22
2017-12-02T13:42:08.086Z,39.72
2017-12-02T13:44:57.231Z,41.50
2017-12-02T13:47:33.873Z,39.78
2017-12-02T13:50:14.624Z,36.92
2017-12-02T13:52:54.907Z,38.75
2017-12-02T13:55:44.572Z,33.10
2017-12-02T13:58:42.923Z,30.90
2017-12-02T14:04:12.259Z,32.13
2017-12-02T14:06:52.256Z,37.17
2017-12-02T14:09:42.614Z,25.52
2017-12-02T14:15:24.901Z,28.40
2017-12-02T14:18:11.647Z,32.45
2017-12-02T14:20:57.576Z,30.65
2017-12-02T14:23:42.608Z,27.13
2017-12-02T14:26:21.974Z,30.23
2017-12-02T14:32:01.366Z,32.08
2017-12-02T14:34:42.847Z,27.67
2017-12-02T14:40:32.078Z,28.42
2017-12-02T14:43:18.448Z,30.40
2017-12-02T14:46:14.008Z,33.58
2017-12-02T14:48:53.256Z,28.75
2017-12-02T14:51:41.644Z,24.15
2017-12-02T14:54:26.468Z,30.17
2017-12-02T14:57:08.676Z,21.48
2017-12-02T14:59:59.292Z,25.12
2017-12-02T15:02:42.447Z,30.55
2017-12-02T15:05:32.036Z,28.73
2017-12-02T15:08:13.538Z,27.17
2017-12-02T15:10:52.179Z,27.37
2017-12-02T15:16:28.577Z,33.88
2017-12-02T15:19:24.282Z,26.30
2017-12-02T15:22:06.709Z,30.80
2017-12-02T15:24:58.168Z,30.75
2017-12-02T15:27:41.941Z,31.15
2017-12-02T15:30:27.878Z,27.40
2017-12-02T15:33:14.434Z,32.42
2017-12-02T15:35:52.394Z,28.35
2017-12-02T15:38:28.608Z,30.40
2017-12-02T15:41:10.770Z,34.03
2017-12-02T15:43:48.906Z,27.25
2017-12-02T15:46:29.563Z,32.45
2017-12-02T15:49:09.556Z,34.35
2017-12-02T15:51:49.349Z,35.00
2017-12-02T15:54:31.449Z,34.58
2017-12-02T15:57:12.507Z,34.50
2017-12-02T15:59:49.823Z,31.90
2017-12-02T16:02:30.829Z,31.92
2017-12-02T16:05:12.535Z,33.60
2017-12-02T16:07:51.629Z,36.17
2017-12-02T16:10:29.192Z,35.35
2017-12-02T16:13:06.658Z,31.58
2017-12-02T16:16:20.613Z,32.55
2017-12-02T16:19:02.622Z,35.30
2017-12-02T16:21:50.908Z,28.48
2017-12-02T16:24:46.710Z,34.28
2017-12-02T16:27:22.426Z,35.90
2017-12-02T16:30:00.556Z,42.05
2017-12-02T16:32:45.136Z,34.95
2017-12-02T16:35:30.030Z,37.47
2017-12-02T16:38:10.143Z,34.92
2017-12-02T16:40:52.864Z,43.80
2017-12-02T16:43:32.618Z,36.25
2017-12-02T16:46:10.771Z,56.13
2017-12-02T16:48:55.582Z,49.03
2017-12-02T16:51:36.141Z,56.28
2017-12-02T16:54:21.514Z,53.22
2017-12-02T16:57:00.482Z,38.20
2017-12-02T16:59:44.778Z,35.83
2017-12-02T17:08:07.869Z,36.53
2017-12-02T17:10:45.952Z,35.33
2017-12-02T17:13:24.057Z,34.60
2017-12-02T17:16:03.593Z,30.20
2017-12-02T17:18:48.282Z,29.42
2017-12-02T17:21:33.748Z,28.70
2017-12-02T17:24:24.913Z,35.42
2017-12-02T17:27:04.588Z,37.67
2017-12-02T17:29:53.517Z,33.92
2017-12-02T17:32:37.678Z,32.35
2017-12-02T17:40:48.838Z,33.53
2017-12-02T17:43:30.484Z,32.45
2017-12-02T17:46:13.945Z,36.92
2017-12-02T17:48:55.889Z,40.08
2017-12-02T17:51:35.846Z,33.47
2017-12-02T17:54:16.144Z,45.40
2017-12-02T17:56:59.071Z,32.42
2017-12-02T17:59:56.965Z,40.20
2017-12-02T18:02:36.093Z,49.92
2017-12-02T18:08:11.209Z,31.55
2017-12-02T18:10:49.776Z,27.08
2017-12-02T18:13:30.577Z,23.92
2017-12-02T18:16:12.191Z,28.85
2017-12-02T18:18:56.068Z,29.80
2017-12-02T18:21:36.075Z,27.23
2017-12-02T18:24:12.199Z,25.67
2017-12-02T18:26:53.246Z,23.48
2017-12-02T18:29:33.468Z,30.25
2017-12-02T18:35:06.950Z,27.58
2017-12-02T18:37:42.501Z,30.10
2017-12-02T18:40:20.231Z,31.33
2017-12-02T18:43:06.283Z,28.38
2017-12-02T18:45:46.780Z,32.40
2017-12-02T18:48:29.180Z,29.08
2017-12-02T18:51:11.561Z,27.30
2017-12-02T18:54:03.322Z,27.25
2017-12-02T18:56:47.151Z,26.08
2017-12-02T19:02:26.473Z,24.40
2017-12-02T19:05:11.972Z,28.98
2017-12-02T19:07:54.635Z,28.15
2017-12-02T19:10:33.460Z,25.88
2017-12-02T19:13:15.066Z,23.05
2017-12-02T19:16:08.907Z,20.33
2017-12-02T19:19:01.628Z,22.95
2017-12-02T19:21:41.363Z,23.05
2017-12-02T19:24:21.486Z,23.95
2017-12-02T19:27:01.130Z,24.48
2017-12-02T19:29:42.534Z,19.80
2017-12-02T19:32:24.083Z,19.37
2017-12-02T19:35:05.457Z,19.48
2017-12-02T19:37:45.724Z,20.40
2017-12-02T19:40:24.498Z,21.55
2017-12-02T19:43:16.413Z,21.08
2017-12-02T19:45:55.837Z,22.67
2017-12-02T19:48:37.175Z,19.95
2017-12-02T19:51:19.550Z,21.87
2017-12-02T19:53:58.334Z,21.58
2017-12-02T19:56:37.604Z,20.83
2017-12-02T19:59:17.461Z,22.35
2017-12-02T20:01:57.066Z,20.25
2017-12-02T20:04:33.975Z,18.83
2017-12-02T20:07:17.696Z,17.75
2017-12-02T20:10:01.121Z,21.90
2017-12-02T20:12:36.493Z,17.12
2017-12-02T20:15:18.103Z,17.75
2017-12-02T20:17:58.249Z,20.98
2017-12-02T20:20:36.682Z,17.05
2017-12-02T20:23:15.228Z,17.90
2017-12-02T20:25:57.322Z,19.55
2017-12-02T20:28:36.299Z,17.90
2017-12-02T20:31:22.942Z,17.33
2017-12-02T20:34:00.268Z,16.77
2017-12-02T20:36:42.044Z,17.20
2017-12-02T20:39:20.774Z,15.93
2017-12-02T20:41:56.303Z,18.45
2017-12-02T20:44:38.491Z,18.83
2017-12-02T20:47:17.021Z,16.20
2017-12-02T20:49:58.099Z,17.42
2017-12-02T20:52:37.005Z,17.85
2017-12-02T20:55:43.647Z,17.27
2017-12-02T20:58:27.426Z,20.50
2017-12-02T21:01:03.950Z,17.58
2017-12-02T21:03:44.242Z,16.60
2017-12-02T21:06:21.851Z,18.80
2017-12-02T21:09:00.901Z,25.95
2017-12-02T21:11:38.326Z,44.95
2017-12-02T21:14:16.670Z,29.48
2017-12-02T21:16:51.984Z,27.20
2017-12-02T21:19:28.298Z,30.10
2017-12-02T21:22:09.916Z,24.05
2017-12-02T21:24:47.836Z,24.05
2017-12-02T21:27:36.068Z,20.52
2017-12-02T21:30:18.758Z,19.83
2017-12-02T21:32:59.261Z,21.08
2017-12-02T21:35:39.535Z,17.48
2017-12-02T21:38:20.170Z,15.43
2017-12-02T21:41:01.628Z,17.40
2017-12-02T21:43:40.160Z,17.92
2017-12-02T21:46:17.062Z,19.50
2017-12-02T21:49:10.535Z,15.10
2017-12-02T21:51:59.596Z,20.02
2017-12-02T21:54:39.137Z,19.23
2017-12-02T21:57:20.857Z,16.17
2017-12-02T22:00:07.155Z,16.92
2017-12-02T22:02:48.475Z,19.25
2017-12-02T22:05:32.551Z,18.85
2017-12-02T22:08:15.785Z,19.27
2017-12-02T22:10:55.861Z,21.80
2017-12-02T22:13:39.444Z,20.77
2017-12-02T22:16:16.818Z,18.48
2017-12-02T22:18:59.137Z,20.23
2017-12-02T22:21:35.407Z,19.60
2017-12-02T22:24:13.657Z,21.83
2017-12-02T22:26:52.584Z,21.77
2017-12-02T22:29:32.273Z,17.60
2017-12-02T22:32:11.965Z,23.55
2017-12-02T22:34:59.856Z,20.42
2017-12-02T22:37:40.087Z,20.65
2017-12-02T22:40:16.155Z,21.25
2017-12-02T22:43:00.981Z,21.98
2017-12-02T22:45:45.875Z,19.20
2017-12-02T22:48:22.378Z,19.77
2017-12-02T22:51:02.000Z,18.87
2017-12-02T22:53:37.921Z,21.30
2017-12-02T22:56:17.829Z,18.67
2017-12-02T22:59:04.388Z,20.67
2017-12-02T23:01:50.613Z,21.08
2017-12-02T23:04:31.869Z,21.92
2017-12-02T23:07:13.144Z,21.87
2017-12-02T23:09:54.849Z,20.40
2017-12-02T23:12:35.864Z,22.17
2017-12-02T23:15:23.720Z,22.48
2017-12-02T23:17:58.160Z,25.55
2017-12-02T23:20:45.309Z,21.80
2017-12-02T23:23:23.938Z,24.25
2017-12-02T23:26:14.960Z,19.40
2017-12-02T23:28:53.921Z,21.17
2017-12-02T23:31:32.160Z,20.30
2017-12-02T23:34:14.366Z,21.73
2017-12-02T23:36:50.292Z,17.02
2017-12-02T23:40:06.681Z,19.20
2017-12-02T23:42:45.566Z,21.48
2017-12-02T23:45:22.966Z,21.98
2017-12-02T23:48:01.852Z,22.67
2017-12-02T23:50:47.615Z,17.77
2017-12-02T23:53:33.452Z,19.73
2017-12-02T23:56:16.214Z,20.10
2017-12-02T23:58:52.495Z,19.05
